Terminal Aerodrome Forecast
Issued by NWS

Home | Current Version | Previous Version | Text Only | Print | Product List | Glossary On
Versions: 1 2 3 4 5 6 7 8 9 10 11 12 13 14
000
FTUS46 KLOX 171100
TAFLGB
TAF
KLGB 171137Z 1712/1812 00000KT 6SM BR SCT003
     FM171600 18006KT P6SM SCT100
     FM172300 28008KT P6SM SCT100
     FM180400 VRB03KT P6SM SKC
     FM180800 VRB03KT P6SM OVC010=

USA.gov is the U.S. government's official web portal to all federal, state and local government web resources and services.